createdAt,value
2023-03-05T00:00:12.857Z,15.40
2023-03-05T00:02:41.019Z,16.40
2023-03-05T00:05:10.422Z,15.37
2023-03-05T00:07:38.191Z,15.93
2023-03-05T00:10:07.093Z,16.03
2023-03-05T00:12:36.976Z,16.43
2023-03-05T00:15:05.354Z,16.50
2023-03-05T00:17:33.474Z,16.27
2023-03-05T00:20:02.409Z,15.67
2023-03-05T00:22:30.690Z,15.50
2023-03-05T00:24:58.644Z,16.90
2023-03-05T00:27:26.385Z,15.90
2023-03-05T00:29:55.965Z,16.47
2023-03-05T00:32:24.038Z,16.03
2023-03-05T00:34:51.826Z,16.63
2023-03-05T00:37:19.556Z,15.50
2023-03-05T00:39:47.503Z,15.10
2023-03-05T00:42:15.407Z,15.07
2023-03-05T00:44:43.301Z,14.83
2023-03-05T00:47:12.581Z,17.40
2023-03-05T00:49:40.441Z,15.40
2023-03-05T00:52:08.266Z,15.30
2023-03-05T00:54:36.210Z,17.00
2023-03-05T00:57:05.833Z,16.40
2023-03-05T00:59:33.676Z,16.07
2023-03-05T01:02:01.779Z,15.23
2023-03-05T01:04:31.488Z,14.77
2023-03-05T01:06:59.416Z,12.60
2023-03-05T01:09:34.680Z,13.83
2023-03-05T01:12:03.096Z,13.53
2023-03-05T01:14:30.920Z,15.73
2023-03-05T01:16:58.649Z,13.67
2023-03-05T01:19:26.439Z,14.73
2023-03-05T01:21:55.852Z,16.23
2023-03-05T01:24:23.777Z,14.17
2023-03-05T01:26:52.238Z,14.67
2023-03-05T01:29:22.355Z,15.20
2023-03-05T01:31:50.278Z,14.43
2023-03-05T01:34:18.370Z,15.07
2023-03-05T01:36:46.076Z,15.17
2023-03-05T01:39:15.300Z,13.90
2023-03-05T01:41:43.131Z,12.70
2023-03-05T01:44:19.810Z,14.00
2023-03-05T01:46:47.698Z,12.27
2023-03-05T01:49:18.796Z,13.07
2023-03-05T01:51:50.319Z,14.70
2023-03-05T01:54:21.188Z,14.07
2023-03-05T01:56:50.328Z,14.00
2023-03-05T01:59:18.874Z,14.87
2023-03-05T02:01:48.325Z,15.80
2023-03-05T02:04:17.097Z,14.40
2023-03-05T02:06:44.936Z,15.50
2023-03-05T02:09:12.840Z,15.73
2023-03-05T02:11:42.466Z,14.70
2023-03-05T02:14:11.324Z,13.03
2023-03-05T02:16:40.106Z,14.73
2023-03-05T02:19:09.530Z,15.33
2023-03-05T02:21:40.150Z,15.40
2023-03-05T02:24:08.474Z,14.37
2023-03-05T02:26:36.533Z,14.73
2023-03-05T02:29:06.419Z,13.93
2023-03-05T02:31:34.603Z,14.90
2023-03-05T02:34:05.502Z,12.23
2023-03-05T02:36:33.786Z,13.57
2023-03-05T02:39:03.557Z,13.77
2023-03-05T02:41:31.437Z,14.60
2023-03-05T02:43:59.346Z,14.23
2023-03-05T02:46:27.182Z,13.50
2023-03-05T02:48:55.241Z,14.40
2023-03-05T02:51:22.965Z,13.33
2023-03-05T02:53:50.656Z,13.97
2023-03-05T02:56:20.017Z,15.57
2023-03-05T02:58:47.748Z,13.63
2023-03-05T03:01:16.247Z,14.30
2023-03-05T03:03:44.275Z,12.70
2023-03-05T03:06:12.176Z,12.77
2023-03-05T03:08:39.937Z,13.23
2023-03-05T03:11:10.040Z,15.23
2023-03-05T03:13:40.160Z,14.97
2023-03-05T03:16:09.869Z,15.43
2023-03-05T03:18:37.849Z,16.03
2023-03-05T03:21:06.711Z,16.00
2023-03-05T03:23:35.747Z,15.23
2023-03-05T03:26:05.951Z,14.77
2023-03-05T03:28:34.137Z,15.63
2023-03-05T03:31:03.528Z,15.30
2023-03-05T03:33:31.326Z,15.70
2023-03-05T03:35:59.153Z,13.87
2023-03-05T03:38:27.174Z,16.13
2023-03-05T03:40:56.061Z,15.27
2023-03-05T03:43:24.155Z,15.57
2023-03-05T03:45:52.181Z,15.53
2023-03-05T03:48:21.567Z,13.50
2023-03-05T03:50:49.463Z,15.13
2023-03-05T03:53:18.507Z,15.43
2023-03-05T03:55:46.685Z,15.07
2023-03-05T03:58:14.648Z,15.83
2023-03-05T04:00:43.185Z,16.83
2023-03-05T04:03:10.837Z,15.67
2023-03-05T04:05:40.124Z,16.13
2023-03-05T04:08:12.207Z,14.33
2023-03-05T04:10:40.307Z,17.03
2023-03-05T04:13:08.593Z,14.10
2023-03-05T04:15:36.626Z,14.87
2023-03-05T04:18:04.596Z,17.23
2023-03-05T04:20:32.525Z,17.73
2023-03-05T04:23:01.621Z,16.17
2023-03-05T04:25:29.359Z,14.10
2023-03-05T04:27:57.775Z,14.20
2023-03-05T04:30:25.484Z,15.27
2023-03-05T04:32:53.614Z,15.50
2023-03-05T04:35:21.649Z,14.60
2023-03-05T04:37:49.336Z,14.83
2023-03-05T04:40:19.029Z,14.63
2023-03-05T04:42:46.887Z,14.43
2023-03-05T04:45:20.143Z,13.60
2023-03-05T04:47:48.372Z,14.27
2023-03-05T04:50:16.003Z,15.77
2023-03-05T04:52:44.739Z,15.13
2023-03-05T04:55:14.530Z,15.20
2023-03-05T04:57:43.916Z,15.27
2023-03-05T05:00:14.614Z,15.53
2023-03-05T05:02:43.160Z,14.93
2023-03-05T05:05:12.338Z,15.53
2023-03-05T05:07:40.424Z,16.47
2023-03-05T05:10:09.030Z,15.73
2023-03-05T05:12:37.161Z,14.00
2023-03-05T05:15:09.621Z,14.80
2023-03-05T05:17:37.805Z,15.73
2023-03-05T05:20:06.770Z,15.23
2023-03-05T05:22:34.797Z,16.03
2023-03-05T05:25:03.008Z,15.20
2023-03-05T05:27:33.495Z,14.83
2023-03-05T05:30:01.987Z,15.80
2023-03-05T05:32:31.076Z,15.60
2023-03-05T05:34:59.558Z,14.60
2023-03-05T05:37:28.072Z,13.70
2023-03-05T05:39:56.145Z,15.00
2023-03-05T05:42:24.877Z,15.93
2023-03-05T05:44:53.005Z,15.60
2023-03-05T05:47:21.254Z,14.77
2023-03-05T05:49:50.769Z,13.33
2023-03-05T05:52:19.034Z,14.53
2023-03-05T05:54:46.987Z,13.60
2023-03-05T05:57:14.788Z,14.57
2023-03-05T05:59:42.486Z,14.60
2023-03-05T06:02:11.279Z,14.27
2023-03-05T06:04:41.392Z,13.17
2023-03-05T06:07:11.049Z,14.23
2023-03-05T06:09:38.833Z,14.10
2023-03-05T06:12:07.452Z,14.90
2023-03-05T06:14:35.750Z,13.23
2023-03-05T06:17:03.479Z,13.40
2023-03-05T06:19:32.707Z,12.67
2023-03-05T06:22:02.255Z,12.80
2023-03-05T06:24:31.755Z,13.40
2023-03-05T06:26:59.863Z,13.30
2023-03-05T06:29:27.988Z,11.57
2023-03-05T06:31:56.085Z,12.10
2023-03-05T06:34:23.994Z,12.30
2023-03-05T06:36:51.979Z,12.70
2023-03-05T06:39:20.119Z,12.00
2023-03-05T06:41:51.540Z,11.33
2023-03-05T06:44:19.790Z,12.07
2023-03-05T06:46:47.610Z,12.47
2023-03-05T06:49:17.805Z,12.13
2023-03-05T06:51:45.899Z,11.50
2023-03-05T06:54:15.031Z,12.00
2023-03-05T06:56:43.833Z,12.07
2023-03-05T06:59:14.459Z,12.50
2023-03-05T07:01:42.239Z,11.27
2023-03-05T07:04:10.461Z,12.40
2023-03-05T07:06:39.980Z,12.63
2023-03-05T07:09:08.389Z,11.17
2023-03-05T07:11:36.403Z,12.57
2023-03-05T07:14:05.159Z,12.07
2023-03-05T07:16:35.289Z,12.93
2023-03-05T07:19:05.514Z,13.20
2023-03-05T07:21:34.486Z,12.33
2023-03-05T07:24:03.454Z,13.63
2023-03-05T07:26:33.576Z,15.10
2023-03-05T07:29:01.979Z,13.60
2023-03-05T07:31:31.784Z,13.50
2023-03-05T07:34:01.910Z,14.07
2023-03-05T07:36:30.009Z,13.70
2023-03-05T07:39:00.058Z,12.77
2023-03-05T07:41:30.930Z,13.37
2023-03-05T07:43:58.748Z,13.57
2023-03-05T07:46:27.750Z,13.33
2023-03-05T07:48:56.160Z,14.10
2023-03-05T07:51:27.740Z,13.33
2023-03-05T07:53:57.678Z,14.73
2023-03-05T07:56:26.957Z,14.33
2023-03-05T07:58:54.766Z,14.00
2023-03-05T08:01:22.954Z,15.23
2023-03-05T08:03:50.793Z,16.07
2023-03-05T08:06:18.555Z,18.03
2023-03-05T08:08:47.746Z,15.47
2023-03-05T08:11:16.867Z,15.80
2023-03-05T08:13:45.164Z,15.37
2023-03-05T08:16:14.539Z,16.07
2023-03-05T08:18:45.299Z,16.10
2023-03-05T08:21:17.189Z,15.97
2023-03-05T08:23:45.255Z,16.20
2023-03-05T08:26:15.981Z,16.87
2023-03-05T08:28:44.130Z,16.70
2023-03-05T08:31:12.778Z,16.17
2023-03-05T08:33:40.662Z,16.07
2023-03-05T08:36:09.993Z,17.40
2023-03-05T08:38:38.203Z,16.87
2023-03-05T08:41:06.350Z,15.40
2023-03-05T08:43:35.944Z,17.37
2023-03-05T08:46:04.315Z,17.13
2023-03-05T08:48:32.434Z,15.57
2023-03-05T08:51:05.780Z,16.57
2023-03-05T08:53:33.816Z,16.03
2023-03-05T08:56:01.642Z,18.00
2023-03-05T08:58:29.537Z,16.57
2023-03-05T09:00:59.041Z,17.63
2023-03-05T09:03:27.039Z,17.20
2023-03-05T09:05:55.213Z,15.73
2023-03-05T09:08:23.663Z,15.57
2023-03-05T09:10:51.570Z,16.60
2023-03-05T09:13:19.712Z,15.30
2023-03-05T09:15:47.766Z,15.87
2023-03-05T09:18:17.194Z,14.37
2023-03-05T09:20:45.036Z,14.20
2023-03-05T09:23:13.282Z,14.77
2023-03-05T09:25:41.283Z,15.63
2023-03-05T09:28:09.443Z,15.03
2023-03-05T09:30:37.236Z,14.67
2023-03-05T09:33:05.874Z,14.60
2023-03-05T09:35:37.904Z,12.77
2023-03-05T09:38:05.762Z,12.13
2023-03-05T09:40:39.594Z,14.23
2023-03-05T09:43:13.975Z,13.87
2023-03-05T09:45:43.651Z,12.90
2023-03-05T09:48:16.603Z,13.87
2023-03-05T09:50:51.708Z,16.13
2023-03-05T09:53:23.051Z,13.90
2023-03-05T09:55:52.539Z,14.03
2023-03-05T09:58:24.433Z,15.00
2023-03-05T10:00:56.124Z,12.60
2023-03-05T10:03:26.661Z,13.33
2023-03-05T10:05:59.946Z,12.90
2023-03-05T10:08:31.567Z,14.63
2023-03-05T10:11:01.191Z,11.77
2023-03-05T10:13:32.393Z,11.07
2023-03-05T10:16:04.724Z,12.23
2023-03-05T10:18:35.141Z,11.80
2023-03-05T10:21:05.034Z,13.40
2023-03-05T10:23:48.012Z,13.73
2023-03-05T10:26:21.810Z,13.90
2023-03-05T10:28:55.272Z,13.10
2023-03-05T10:31:34.150Z,12.07
2023-03-05T10:34:08.228Z,10.83
2023-03-05T10:36:50.940Z,12.13
2023-03-05T10:39:37.348Z,13.17
2023-03-05T10:42:10.429Z,11.97
2023-03-05T10:44:41.146Z,10.67
2023-03-05T10:47:14.054Z,11.33
2023-03-05T10:49:49.805Z,11.47
2023-03-05T10:52:19.508Z,10.73
2023-03-05T10:54:47.634Z,10.30
2023-03-05T10:57:19.706Z,8.77
2023-03-05T10:59:51.577Z,10.63
2023-03-05T11:02:19.911Z,9.73
2023-03-05T11:04:48.505Z,9.17
2023-03-05T11:07:33.880Z,10.40
2023-03-05T11:10:16.455Z,10.33
2023-03-05T11:12:48.858Z,9.10
2023-03-05T11:15:26.487Z,10.00
2023-03-05T11:18:13.058Z,11.07
2023-03-05T11:20:41.045Z,10.77
2023-03-05T11:23:12.888Z,10.30
2023-03-05T11:25:53.183Z,10.63
2023-03-05T11:28:32.369Z,10.60
2023-03-05T11:31:02.926Z,10.17
2023-03-05T11:33:33.602Z,9.60
2023-03-05T11:36:20.181Z,11.47
2023-03-05T11:38:51.644Z,10.07
2023-03-05T11:41:21.633Z,9.03
2023-03-05T11:43:52.510Z,10.73
2023-03-05T11:46:21.499Z,12.13
2023-03-05T11:48:50.630Z,9.87
2023-03-05T11:51:21.095Z,9.23
2023-03-05T11:53:51.304Z,8.70
2023-03-05T11:56:21.172Z,8.73
2023-03-05T11:58:52.640Z,9.30
2023-03-05T12:01:21.972Z,7.83
2023-03-05T12:03:50.823Z,8.87
2023-03-05T12:06:20.590Z,9.70
2023-03-05T12:08:51.118Z,8.23
2023-03-05T12:11:20.992Z,8.40
2023-03-05T12:13:50.842Z,8.53
2023-03-05T12:16:25.841Z,9.40
2023-03-05T12:18:57.119Z,9.70
2023-03-05T12:21:33.151Z,8.80
2023-03-05T12:24:02.668Z,9.50
2023-03-05T12:26:51.581Z,8.70
2023-03-05T12:29:28.908Z,8.27
2023-03-05T12:31:58.681Z,9.53
2023-03-05T12:34:47.271Z,8.90
2023-03-05T12:37:15.500Z,8.53
2023-03-05T12:39:50.142Z,9.03
2023-03-05T12:42:36.377Z,9.30
2023-03-05T12:45:19.788Z,9.13
2023-03-05T12:47:49.867Z,7.40
2023-03-05T12:50:33.470Z,9.00
2023-03-05T12:53:08.608Z,9.60
2023-03-05T12:55:37.503Z,8.90
2023-03-05T12:58:10.763Z,8.63
2023-03-05T13:00:41.677Z,8.93
2023-03-05T13:03:13.030Z,10.57
2023-03-05T13:05:48.927Z,7.93
2023-03-05T13:08:21.444Z,8.63
2023-03-05T13:10:53.770Z,8.90
2023-03-05T13:13:22.391Z,10.33
2023-03-05T13:15:51.044Z,10.87
2023-03-05T13:18:22.554Z,7.93
2023-03-05T13:21:02.493Z,9.07
2023-03-05T13:23:30.557Z,10.13
2023-03-05T13:25:59.882Z,8.10
2023-03-05T13:28:28.311Z,12.27
2023-03-05T13:30:58.645Z,11.10
2023-03-05T13:33:29.045Z,8.37
2023-03-05T13:35:57.295Z,10.20
2023-03-05T13:38:27.720Z,9.63
2023-03-05T13:41:06.969Z,8.80
2023-03-05T13:43:43.274Z,8.47
2023-03-05T13:46:11.663Z,9.87
2023-03-05T13:48:41.299Z,8.37
2023-03-05T13:51:12.181Z,9.37
2023-03-05T13:53:40.140Z,10.03
2023-03-05T13:56:09.253Z,9.43
2023-03-05T13:58:52.541Z,8.50
2023-03-05T14:01:25.341Z,9.53
2023-03-05T14:03:56.243Z,8.80
2023-03-05T14:06:25.437Z,8.20
2023-03-05T14:08:54.164Z,8.03
2023-03-05T14:11:23.281Z,9.17
2023-03-05T14:14:00.321Z,11.27
2023-03-05T14:16:32.859Z,10.67
2023-03-05T14:19:02.878Z,8.80
2023-03-05T14:21:47.566Z,9.10
2023-03-05T14:24:16.708Z,8.70
2023-03-05T14:26:50.307Z,8.40
2023-03-05T14:29:21.399Z,8.83
2023-03-05T14:31:51.185Z,9.60
2023-03-05T14:34:33.975Z,9.93
2023-03-05T14:37:04.496Z,9.10
2023-03-05T14:39:34.007Z,10.97
2023-03-05T14:42:29.021Z,10.20
2023-03-05T14:44:57.964Z,9.97
2023-03-05T14:47:26.166Z,9.77
2023-03-05T14:49:54.185Z,9.37
2023-03-05T14:52:25.126Z,9.73
2023-03-05T14:54:53.164Z,8.43
2023-03-05T14:57:22.471Z,10.33
2023-03-05T14:59:53.302Z,11.30
2023-03-05T15:02:22.658Z,10.07
2023-03-05T15:04:50.736Z,10.27
2023-03-05T15:07:20.200Z,9.37
2023-03-05T15:09:49.631Z,10.50
2023-03-05T15:12:17.948Z,10.50
2023-03-05T15:14:46.087Z,10.73
2023-03-05T15:17:21.802Z,10.67
2023-03-05T15:19:50.008Z,9.87
2023-03-05T15:22:18.488Z,12.03
2023-03-05T15:24:46.825Z,10.67
2023-03-05T15:27:15.953Z,10.83
2023-03-05T15:29:43.820Z,11.43
2023-03-05T15:32:11.996Z,9.90
2023-03-05T15:34:39.793Z,12.60
2023-03-05T15:37:07.560Z,11.03
2023-03-05T15:39:35.469Z,9.67
2023-03-05T15:42:05.339Z,12.30
2023-03-05T15:44:35.823Z,11.67
2023-03-05T15:47:04.046Z,12.03
2023-03-05T15:49:31.987Z,10.70
2023-03-05T15:52:00.366Z,11.97
2023-03-05T15:54:28.606Z,10.47
2023-03-05T15:56:56.728Z,9.00
2023-03-05T15:59:25.358Z,9.70
2023-03-05T16:01:54.600Z,8.40
2023-03-05T16:04:22.804Z,9.73
2023-03-05T16:06:51.583Z,10.30
2023-03-05T16:09:21.046Z,9.77
2023-03-05T16:11:51.597Z,9.67
2023-03-05T16:14:23.324Z,8.70
2023-03-05T16:16:52.654Z,9.87
2023-03-05T16:19:23.091Z,9.50
2023-03-05T16:21:51.100Z,11.20
2023-03-05T16:24:19.132Z,9.93
2023-03-05T16:26:46.866Z,9.67
2023-03-05T16:29:14.766Z,11.30
2023-03-05T16:31:43.340Z,10.53
2023-03-05T16:34:14.078Z,9.10
2023-03-05T16:36:47.302Z,9.57
2023-03-05T16:39:15.193Z,10.13
2023-03-05T16:41:42.872Z,11.00
2023-03-05T16:44:11.189Z,10.23
2023-03-05T16:46:39.075Z,11.03
2023-03-05T16:49:07.286Z,9.80
2023-03-05T16:51:35.400Z,8.93
2023-03-05T16:54:05.008Z,9.77
2023-03-05T16:56:32.732Z,10.60
2023-03-05T16:59:00.405Z,10.10
2023-03-05T17:01:30.371Z,9.97
2023-03-05T17:03:59.030Z,11.07
2023-03-05T17:06:27.854Z,10.10
2023-03-05T17:08:56.069Z,10.33
2023-03-05T17:11:25.855Z,12.53
2023-03-05T17:13:53.734Z,11.53
2023-03-05T17:16:21.810Z,10.37
2023-03-05T17:18:50.231Z,10.80
2023-03-05T17:21:18.081Z,11.43
2023-03-05T17:23:45.928Z,11.57
2023-03-05T17:26:16.632Z,9.03
2023-03-05T17:28:46.934Z,11.83
2023-03-05T17:31:14.972Z,10.97
2023-03-05T17:33:43.519Z,11.37
2023-03-05T17:36:15.606Z,9.67
2023-03-05T17:38:44.131Z,10.03
2023-03-05T17:41:11.984Z,11.17
2023-03-05T17:43:40.001Z,9.57
2023-03-05T17:46:09.505Z,9.33
2023-03-05T17:48:39.386Z,10.47
2023-03-05T17:51:07.337Z,9.70
2023-03-05T17:53:35.332Z,10.47
2023-03-05T17:56:03.687Z,11.77
2023-03-05T17:58:31.736Z,10.20
2023-03-05T18:01:00.476Z,11.43
2023-03-05T18:03:29.728Z,11.37
2023-03-05T18:05:58.766Z,11.50
2023-03-05T18:08:26.624Z,10.87
2023-03-05T18:10:54.945Z,12.83
2023-03-05T18:13:22.673Z,13.93
2023-03-05T18:15:50.774Z,12.97
2023-03-05T18:18:19.106Z,10.83
2023-03-05T18:20:48.893Z,9.93
2023-03-05T18:23:17.191Z,10.47
2023-03-05T18:25:45.119Z,9.97
2023-03-05T18:28:14.461Z,8.37
2023-03-05T18:30:43.045Z,9.17
2023-03-05T18:33:15.346Z,9.23
2023-03-05T18:35:43.251Z,9.60
2023-03-05T18:38:15.382Z,9.97
2023-03-05T18:40:44.046Z,9.07
2023-03-05T18:43:11.897Z,10.63
2023-03-05T18:45:39.689Z,10.87
2023-03-05T18:48:07.643Z,8.97
2023-03-05T18:50:35.537Z,9.90
2023-03-05T18:53:03.480Z,10.13
2023-03-05T18:55:33.189Z,9.53
2023-03-05T18:58:01.012Z,10.47
2023-03-05T19:00:30.422Z,10.03
2023-03-05T19:02:59.107Z,8.10
2023-03-05T19:05:27.948Z,9.00
2023-03-05T19:07:56.266Z,9.93
2023-03-05T19:10:24.697Z,9.60
2023-03-05T19:13:10.953Z,9.50
2023-03-05T19:15:46.870Z,8.37
2023-03-05T19:18:14.936Z,10.27
2023-03-05T19:20:42.702Z,9.53
2023-03-05T19:23:10.747Z,10.03
2023-03-05T19:25:41.241Z,9.47
2023-03-05T19:28:10.554Z,9.47
2023-03-05T19:30:38.831Z,9.67
2023-03-05T19:33:06.547Z,9.63
2023-03-05T19:35:34.427Z,10.10
2023-03-05T19:38:02.385Z,8.87
2023-03-05T19:40:30.328Z,9.43
2023-03-05T19:42:58.821Z,9.53
2023-03-05T19:45:28.004Z,11.33
2023-03-05T19:47:55.791Z,9.53
2023-03-05T19:50:23.771Z,9.57
2023-03-05T19:52:51.551Z,9.90
2023-03-05T19:55:20.926Z,6.27
2023-03-05T19:57:48.830Z,9.00
2023-03-05T20:00:17.193Z,9.07
2023-03-05T20:02:49.480Z,9.37
2023-03-05T20:05:17.415Z,9.87
2023-03-05T20:07:45.201Z,10.00
2023-03-05T20:10:13.840Z,9.90
2023-03-05T20:12:44.148Z,9.10
2023-03-05T20:15:12.450Z,9.97
2023-03-05T20:17:46.905Z,8.10
2023-03-05T20:20:18.028Z,9.33
2023-03-05T20:22:46.494Z,9.23
2023-03-05T20:25:16.535Z,8.50
2023-03-05T20:27:44.934Z,7.87
2023-03-05T20:30:13.867Z,9.33
2023-03-05T20:32:42.234Z,9.03
2023-03-05T20:35:15.436Z,9.07
2023-03-05T20:38:21.893Z,9.33
2023-03-05T20:40:50.207Z,9.30
2023-03-05T20:43:18.628Z,10.03
2023-03-05T20:45:46.636Z,9.50
2023-03-05T20:48:14.626Z,9.30
2023-03-05T20:50:43.003Z,9.57
2023-03-05T20:53:12.137Z,8.80
2023-03-05T20:55:39.867Z,9.10
2023-03-05T20:58:07.677Z,8.80
2023-03-05T21:00:35.641Z,9.10
2023-03-05T21:03:03.602Z,9.57
2023-03-05T21:05:31.943Z,8.90
2023-03-05T21:08:01.239Z,7.90
2023-03-05T21:10:30.399Z,9.10
2023-03-05T21:13:00.753Z,8.77
2023-03-05T21:15:30.448Z,9.30
2023-03-05T21:17:58.783Z,10.27
2023-03-05T21:20:28.371Z,9.13
2023-03-05T21:22:56.647Z,9.77
2023-03-05T21:25:27.693Z,9.17
2023-03-05T21:27:58.638Z,9.47
2023-03-05T21:30:28.472Z,9.43
2023-03-05T21:32:58.223Z,9.53
2023-03-05T21:35:26.063Z,9.93
2023-03-05T21:37:53.850Z,8.83
2023-03-05T21:40:22.467Z,9.13
2023-03-05T21:42:50.693Z,9.17
2023-03-05T21:45:21.565Z,9.20
2023-03-05T21:47:49.862Z,8.73
2023-03-05T21:50:18.205Z,10.77
2023-03-05T21:52:46.035Z,10.33
2023-03-05T21:55:14.486Z,9.63
2023-03-05T21:57:42.918Z,9.53
2023-03-05T22:00:12.883Z,9.50
2023-03-05T22:02:45.968Z,9.93
2023-03-05T22:05:15.778Z,9.50
2023-03-05T22:07:44.176Z,8.87
2023-03-05T22:10:13.511Z,9.13
2023-03-05T22:12:58.440Z,10.77
2023-03-05T22:15:26.611Z,10.80
2023-03-05T22:17:56.135Z,9.83
2023-03-05T22:20:24.035Z,9.93
2023-03-05T22:22:54.147Z,9.50
2023-03-05T22:25:22.029Z,9.03
2023-03-05T22:27:49.808Z,9.60
2023-03-05T22:30:18.055Z,8.90
2023-03-05T22:32:45.738Z,9.90
2023-03-05T22:35:16.119Z,9.73
2023-03-05T22:37:46.975Z,9.27
2023-03-05T22:40:16.336Z,9.20
2023-03-05T22:42:45.094Z,9.00
2023-03-05T22:45:15.544Z,11.03
2023-03-05T22:47:43.667Z,9.50
2023-03-05T22:50:12.450Z,10.83
2023-03-05T22:52:41.848Z,10.30
2023-03-05T22:55:11.979Z,8.67
2023-03-05T22:57:39.757Z,9.67
2023-03-05T23:00:09.401Z,10.00
2023-03-05T23:02:37.223Z,9.87
2023-03-05T23:05:05.209Z,10.23
2023-03-05T23:07:35.521Z,10.70
2023-03-05T23:10:06.286Z,10.63
2023-03-05T23:12:35.178Z,10.23
2023-03-05T23:15:06.474Z,9.87
2023-03-05T23:17:34.333Z,10.50
2023-03-05T23:20:04.320Z,10.27
2023-03-05T23:22:32.411Z,10.20
2023-03-05T23:25:03.156Z,10.20
2023-03-05T23:27:32.382Z,9.57
2023-03-05T23:30:17.632Z,10.37
2023-03-05T23:32:47.892Z,9.97
2023-03-05T23:35:16.404Z,9.50
2023-03-05T23:37:44.184Z,8.73
2023-03-05T23:40:14.368Z,10.67
2023-03-05T23:42:44.016Z,8.37
2023-03-05T23:45:12.712Z,9.57
2023-03-05T23:47:40.620Z,8.23
2023-03-05T23:50:09.942Z,9.83
2023-03-05T23:52:37.788Z,10.03
2023-03-05T23:55:06.256Z,10.30
2023-03-05T23:57:34.544Z,9.93
